Clearwater, FL (33767)

6:28 PM EDT on July 04, 2015 (GMT -0400)
APRSWXNET | | Change Station
CLOSE
Current Station
Personal Weather Station
Location: Clearwater, FL
Elevation: 29 ft
Nearby Weather Stations

Elev 29 ft 27.99 °N, 82.83 °W | Updated 29 minutes ago

Clear
Clear
89 °F
Feels Like 102 °F
N
4
Wind Variable Wind from West
Gusts 8.0 mph

Today
High -- | Low -- °F
--% Chance of Precip.
Yesterday
High -- | Low -- °F
Precip. -- in
6:39 AM 8:31 PM
Waning Gibbous, 90% visible
Pressure 30.06 in
Visibility 10.0 miles
Clouds Few 4000 ft
Heat Index 102 °F
Dew Point 77 °F
Humidity 68%
Rainfall in
Snow Depth Not available.
UV 4 out of 12
Pollen 3.80 out of 12
Air Quality Not available.
Flu Activity Not available.
METAR KPIE 042153Z 32008KT 10SM FEW040 33/24 A3006 RMK AO2 LTG DSNT NE-SE SLP179 T03280244

More Conditions Fewer Conditions

Pressure 30.06 in
Visibility 10.0 miles
Clouds Few 4000 ft
Heat Index 102 °F
Dew Point 77 °F
Humidity 68%
Rainfall in
Snow Depth Not available.
UV 4 out of 12
Pollen 3.80 out of 12
Air Quality Not available.
Flu Activity Not available.
METAR KPIE 042153Z 32008KT 10SM FEW040 33/24 A3006 RMK AO2 LTG DSNT NE-SE SLP179 T03280244

More Conditions Fewer Conditions

10-Day Weather Forecast

×

Almanac

Astronomy

Jul. 04, 2015 Rise Set
Actual Time
Civil Twilight
Nautical Twilight
Astronomical Twilight
Moon
Length of Visible Light
Length of Day
Tomorrow will be .
, % of the Moon is Illuminated

Today's Extremes

State Highs State Lows

Community

WunderPhotos

Upload Photos

1,835,105 photos uploaded!

WunderBlogs® & News

Nearby

Air Quality

  Air Quality AQ Index Pollutant
Not available.

Snow Depth

Station Depth Elevation

Earthquake Activity

City Distance Mag. Time & Date
Minimum magnitude displayed is 2.5.

Coastal Water Temperatures

Place Temperature

Stations

Nearby Weather Stations

Station Location Temp. Windchill Dew Point Humidity Wind Precip. Elev Updated Type